sensor_id;sensor_type;location;lat;lon;timestamp;pressure;altitude;pressure_sealevel;temperature;humidity
41467;BME280;27205;53.690;19.948;2023-02-21T00:00:31;98325.14;;;7.49;75.51
41467;BME280;27205;53.690;19.948;2023-02-21T00:05:57;98324.16;;;7.57;75.02
41467;BME280;27205;53.690;19.948;2023-02-21T00:11:19;98322.27;;;7.57;74.68
41467;BME280;27205;53.690;19.948;2023-02-21T00:16:42;98324.10;;;7.55;74.44
41467;BME280;27205;53.690;19.948;2023-02-21T00:22:04;98324.77;;;7.55;74.41
41467;BME280;27205;53.690;19.948;2023-02-21T00:27:27;98322.41;;;7.55;74.44
41467;BME280;27205;53.690;19.948;2023-02-21T00:32:49;98318.91;;;7.54;73.84
41467;BME280;27205;53.690;19.948;2023-02-21T00:38:11;98319.11;;;7.53;73.50
41467;BME280;27205;53.690;19.948;2023-02-21T00:43:34;98329.71;;;7.53;72.74
41467;BME280;27205;53.690;19.948;2023-02-21T00:48:57;98339.13;;;7.53;73.06
41467;BME280;27205;53.690;19.948;2023-02-21T00:54:19;98328.11;;;7.53;73.43
41467;BME280;27205;53.690;19.948;2023-02-21T00:59:41;98332.45;;;7.51;73.33
41467;BME280;27205;53.690;19.948;2023-02-21T01:05:04;98329.92;;;7.47;73.20
41467;BME280;27205;53.690;19.948;2023-02-21T01:10:26;98325.33;;;7.46;73.52
41467;BME280;27205;53.690;19.948;2023-02-21T01:15:49;98319.91;;;7.47;73.56
41467;BME280;27205;53.690;19.948;2023-02-21T01:21:13;98316.56;;;7.40;73.77
41467;BME280;27205;53.690;19.948;2023-02-21T01:26:35;98299.41;;;7.29;73.95
41467;BME280;27205;53.690;19.948;2023-02-21T01:31:57;98311.23;;;7.14;74.56
41467;BME280;27205;53.690;19.948;2023-02-21T01:37:20;98315.52;;;6.97;75.30
41467;BME280;27205;53.690;19.948;2023-02-21T01:42:42;98308.20;;;6.86;75.71
41467;BME280;27205;53.690;19.948;2023-02-21T01:48:05;98314.48;;;6.77;76.52
41467;BME280;27205;53.690;19.948;2023-02-21T01:53:28;98315.17;;;6.67;77.30
41467;BME280;27205;53.690;19.948;2023-02-21T01:58:52;98307.27;;;6.61;77.47
41467;BME280;27205;53.690;19.948;2023-02-21T02:04:16;98308.73;;;6.59;77.63
41467;BME280;27205;53.690;19.948;2023-02-21T02:09:38;98300.98;;;6.59;78.11
41467;BME280;27205;53.690;19.948;2023-02-21T02:20:44;98298.70;;;6.66;78.19
41467;BME280;27205;53.690;19.948;2023-02-21T02:37:20;98289.39;;;6.59;78.42
41467;BME280;27205;53.690;19.948;2023-02-21T02:48:02;98293.80;;;6.59;78.23
41467;BME280;27205;53.690;19.948;2023-02-21T02:53:10;98294.80;;;6.64;78.28
41467;BME280;27205;53.690;19.948;2023-02-21T02:58:14;98291.55;;;6.66;78.03
41467;BME280;27205;53.690;19.948;2023-02-21T03:24:07;98298.58;;;6.78;76.25
41467;BME280;27205;53.690;19.948;2023-02-21T03:29:14;98297.98;;;6.63;76.64
41467;BME280;27205;53.690;19.948;2023-02-21T03:34:18;98304.23;;;6.58;76.35
41467;BME280;27205;53.690;19.948;2023-02-21T03:39:22;98309.76;;;6.58;76.36
41467;BME280;27205;53.690;19.948;2023-02-21T03:44:25;98317.55;;;6.56;76.17
41467;BME280;27205;53.690;19.948;2023-02-21T03:49:29;98323.77;;;6.56;76.21
41467;BME280;27205;53.690;19.948;2023-02-21T03:54:32;98323.03;;;6.52;76.31
41467;BME280;27205;53.690;19.948;2023-02-21T03:59:36;98332.91;;;6.52;76.86
41467;BME280;27205;53.690;19.948;2023-02-21T04:04:40;98348.17;;;6.46;77.30
41467;BME280;27205;53.690;19.948;2023-02-21T04:09:43;98346.36;;;6.32;77.92
41467;BME280;27205;53.690;19.948;2023-02-21T04:14:47;98340.46;;;6.21;78.58
41467;BME280;27205;53.690;19.948;2023-02-21T04:19:51;98338.45;;;6.15;78.96
41467;BME280;27205;53.690;19.948;2023-02-21T04:24:55;98347.60;;;6.12;79.05
41467;BME280;27205;53.690;19.948;2023-02-21T04:29:59;98346.19;;;6.10;79.20
41467;BME280;27205;53.690;19.948;2023-02-21T04:35:03;98331.87;;;6.05;79.61
41467;BME280;27205;53.690;19.948;2023-02-21T04:40:07;98341.89;;;6.00;79.81
41467;BME280;27205;53.690;19.948;2023-02-21T04:45:10;98355.30;;;5.99;79.97
41467;BME280;27205;53.690;19.948;2023-02-21T04:50:14;98356.12;;;5.92;80.60
41467;BME280;27205;53.690;19.948;2023-02-21T04:55:18;98345.02;;;5.74;81.80
41467;BME280;27205;53.690;19.948;2023-02-21T05:00:21;98344.77;;;5.54;82.81
41467;BME280;27205;53.690;19.948;2023-02-21T05:05:26;98341.59;;;5.41;83.38
41467;BME280;27205;53.690;19.948;2023-02-21T05:10:29;98344.63;;;5.35;83.75
41467;BME280;27205;53.690;19.948;2023-02-21T05:15:47;98343.64;;;5.33;84.51
41467;BME280;27205;53.690;19.948;2023-02-21T05:20:51;98344.06;;;5.31;84.66
41467;BME280;27205;53.690;19.948;2023-02-21T05:25:54;98332.48;;;5.29;84.91
41467;BME280;27205;53.690;19.948;2023-02-21T05:30:58;98330.78;;;5.29;85.36
41467;BME280;27205;53.690;19.948;2023-02-21T05:36:03;98331.71;;;5.31;85.73
41467;BME280;27205;53.690;19.948;2023-02-21T05:41:07;98335.04;;;5.31;86.17
41467;BME280;27205;53.690;19.948;2023-02-21T05:46:27;98351.71;;;5.28;86.68
41467;BME280;27205;53.690;19.948;2023-02-21T05:51:40;98355.06;;;5.27;87.04
41467;BME280;27205;53.690;19.948;2023-02-21T05:56:45;98370.67;;;5.25;87.83
41467;BME280;27205;53.690;19.948;2023-02-21T06:01:49;98370.58;;;5.23;88.41
41467;BME280;27205;53.690;19.948;2023-02-21T06:06:53;98393.70;;;5.22;88.61
41467;BME280;27205;53.690;19.948;2023-02-21T06:11:57;98398.39;;;5.19;89.07
41467;BME280;27205;53.690;19.948;2023-02-21T06:17:00;98408.94;;;5.17;89.90
41467;BME280;27205;53.690;19.948;2023-02-21T06:22:04;98424.40;;;5.10;90.52
41467;BME280;27205;53.690;19.948;2023-02-21T06:27:08;98424.31;;;5.06;90.54
41467;BME280;27205;53.690;19.948;2023-02-21T06:32:11;98424.75;;;5.02;90.66
41467;BME280;27205;53.690;19.948;2023-02-21T06:37:17;98434.05;;;5.02;91.64
41467;BME280;27205;53.690;19.948;2023-02-21T06:42:21;98441.56;;;5.03;92.60
41467;BME280;27205;53.690;19.948;2023-02-21T06:47:24;98447.60;;;5.07;92.40
41467;BME280;27205;53.690;19.948;2023-02-21T06:52:30;98460.02;;;5.11;92.61
41467;BME280;27205;53.690;19.948;2023-02-21T06:57:33;98467.27;;;5.14;92.86
41467;BME280;27205;53.690;19.948;2023-02-21T07:02:37;98483.81;;;5.18;93.30
41467;BME280;27205;53.690;19.948;2023-02-21T07:07:41;98490.69;;;5.24;93.47
41467;BME280;27205;53.690;19.948;2023-02-21T07:12:45;98507.71;;;5.29;93.86
41467;BME280;27205;53.690;19.948;2023-02-21T07:17:49;98512.63;;;5.35;93.63
41467;BME280;27205;53.690;19.948;2023-02-21T07:22:53;98527.61;;;5.39;94.24
41467;BME280;27205;53.690;19.948;2023-02-21T07:27:57;98537.49;;;5.43;94.22
41467;BME280;27205;53.690;19.948;2023-02-21T07:33:01;98541.97;;;5.41;94.34
41467;BME280;27205;53.690;19.948;2023-02-21T07:38:04;98547.07;;;5.45;94.28
41467;BME280;27205;53.690;19.948;2023-02-21T07:43:08;98552.85;;;5.52;94.46
41467;BME280;27205;53.690;19.948;2023-02-21T07:48:11;98555.55;;;5.64;94.56
41467;BME280;27205;53.690;19.948;2023-02-21T07:53:18;98572.27;;;5.71;94.47
41467;BME280;27205;53.690;19.948;2023-02-21T07:58:22;98575.98;;;5.77;94.39
41467;BME280;27205;53.690;19.948;2023-02-21T08:03:25;98582.52;;;5.83;94.29
41467;BME280;27205;53.690;19.948;2023-02-21T08:08:29;98595.20;;;5.88;94.27
41467;BME280;27205;53.690;19.948;2023-02-21T08:13:32;98596.24;;;5.90;94.23
41467;BME280;27205;53.690;19.948;2023-02-21T08:18:36;98604.64;;;5.90;94.23
41467;BME280;27205;53.690;19.948;2023-02-21T08:23:39;98614.11;;;5.89;94.33
41467;BME280;27205;53.690;19.948;2023-02-21T08:28:43;98615.98;;;5.94;94.35
41467;BME280;27205;53.690;19.948;2023-02-21T08:33:46;98629.03;;;6.01;94.47
41467;BME280;27205;53.690;19.948;2023-02-21T08:38:50;98639.35;;;6.08;94.42
41467;BME280;27205;53.690;19.948;2023-02-21T08:43:53;98639.47;;;6.16;94.34
41467;BME280;27205;53.690;19.948;2023-02-21T08:48:57;98652.19;;;6.23;94.26
41467;BME280;27205;53.690;19.948;2023-02-21T08:54:01;98658.27;;;6.30;93.98
41467;BME280;27205;53.690;19.948;2023-02-21T08:59:05;98667.77;;;6.33;94.05
41467;BME280;27205;53.690;19.948;2023-02-21T09:04:11;98680.64;;;6.39;93.97
41467;BME280;27205;53.690;19.948;2023-02-21T09:09:15;98687.47;;;6.49;93.71
41467;BME280;27205;53.690;19.948;2023-02-21T09:14:18;98695.19;;;6.63;93.67
41467;BME280;27205;53.690;19.948;2023-02-21T09:19:22;98692.77;;;6.84;93.50
41467;BME280;27205;53.690;19.948;2023-02-21T09:24:26;98710.48;;;6.96;92.81
41467;BME280;27205;53.690;19.948;2023-02-21T09:29:32;98713.49;;;7.08;92.39
41467;BME280;27205;53.690;19.948;2023-02-21T09:34:48;98728.11;;;7.26;92.12
41467;BME280;27205;53.690;19.948;2023-02-21T09:39:52;98728.31;;;7.34;91.63
41467;BME280;27205;53.690;19.948;2023-02-21T09:44:55;98739.54;;;7.48;91.33
41467;BME280;27205;53.690;19.948;2023-02-21T09:50:04;98744.69;;;7.58;90.39
41467;BME280;27205;53.690;19.948;2023-02-21T09:55:38;98753.39;;;7.64;89.91
41467;BME280;27205;53.690;19.948;2023-02-21T10:00:42;98770.25;;;7.69;89.08
41467;BME280;27205;53.690;19.948;2023-02-21T10:11:22;98779.89;;;7.93;87.52
41467;BME280;27205;53.690;19.948;2023-02-21T10:16:40;98788.45;;;8.04;86.93
41467;BME280;27205;53.690;19.948;2023-02-21T10:21:47;98794.35;;;8.19;86.96
41467;BME280;27205;53.690;19.948;2023-02-21T10:27:04;98807.96;;;8.28;86.03
41467;BME280;27205;53.690;19.948;2023-02-21T10:32:09;98809.15;;;8.31;84.51
41467;BME280;27205;53.690;19.948;2023-02-21T10:37:39;98808.36;;;8.35;84.38
41467;BME280;27205;53.690;19.948;2023-02-21T10:42:51;98818.44;;;8.49;82.74
41467;BME280;27205;53.690;19.948;2023-02-21T10:48:06;98827.19;;;8.65;80.91
41467;BME280;27205;53.690;19.948;2023-02-21T10:53:23;98836.23;;;8.66;80.13
41467;BME280;27205;53.690;19.948;2023-02-21T10:58:29;98844.75;;;8.64;79.48
41467;BME280;27205;53.690;19.948;2023-02-21T11:03:33;98850.02;;;8.58;78.40
41467;BME280;27205;53.690;19.948;2023-02-21T11:08:41;98860.54;;;8.48;77.57
41467;BME280;27205;53.690;19.948;2023-02-21T11:13:45;98867.33;;;8.52;78.11
41467;BME280;27205;53.690;19.948;2023-02-21T11:19:06;98869.51;;;8.35;76.96
41467;BME280;27205;53.690;19.948;2023-02-21T11:24:10;98877.38;;;8.23;76.90
41467;BME280;27205;53.690;19.948;2023-02-21T11:29:18;98890.48;;;8.18;77.37
41467;BME280;27205;53.690;19.948;2023-02-21T11:34:30;98892.42;;;8.17;77.06
41467;BME280;27205;53.690;19.948;2023-02-21T11:39:34;98900.89;;;8.20;77.09
41467;BME280;27205;53.690;19.948;2023-02-21T11:44:38;98906.77;;;8.24;76.34
41467;BME280;27205;53.690;19.948;2023-02-21T11:49:56;98905.05;;;8.30;76.90
41467;BME280;27205;53.690;19.948;2023-02-21T11:55:12;98917.96;;;8.41;76.58
41467;BME280;27205;53.690;19.948;2023-02-21T12:00:22;98916.55;;;8.43;76.35
41467;BME280;27205;53.690;19.948;2023-02-21T12:32:29;98936.33;;;8.98;74.87
41467;BME280;27205;53.690;19.948;2023-02-21T12:42:55;98953.10;;;8.93;74.60
41467;BME280;27205;53.690;19.948;2023-02-21T12:48:16;98946.92;;;8.94;74.82
41467;BME280;27205;53.690;19.948;2023-02-21T12:53:25;98949.05;;;8.97;74.55
41467;BME280;27205;53.690;19.948;2023-02-21T12:58:39;98960.18;;;8.93;74.60
41467;BME280;27205;53.690;19.948;2023-02-21T13:09:35;98970.10;;;8.57;75.43
41467;BME280;27205;53.690;19.948;2023-02-21T13:14:48;98976.01;;;8.10;76.97
41467;BME280;27205;53.690;19.948;2023-02-21T13:19:59;98979.70;;;7.95;77.57
41467;BME280;27205;53.690;19.948;2023-02-21T13:35:38;99000.38;;;8.04;78.56
41467;BME280;27205;53.690;19.948;2023-02-21T13:40:51;99006.60;;;8.02;79.10
41467;BME280;27205;53.690;19.948;2023-02-21T13:51:50;99019.27;;;8.09;79.47
41467;BME280;27205;53.690;19.948;2023-02-21T13:56:58;99028.19;;;8.03;79.25
41467;BME280;27205;53.690;19.948;2023-02-21T14:02:18;99038.84;;;8.05;79.22
41467;BME280;27205;53.690;19.948;2023-02-21T14:08:02;99039.80;;;8.09;79.13
41467;BME280;27205;53.690;19.948;2023-02-21T14:23:48;99062.11;;;8.03;78.56
41467;BME280;27205;53.690;19.948;2023-02-21T14:33:59;99074.14;;;7.96;77.52
41467;BME280;27205;53.690;19.948;2023-02-21T14:39:02;99075.42;;;7.93;77.23
41467;BME280;27205;53.690;19.948;2023-02-21T14:44:29;99084.47;;;7.85;77.01
41467;BME280;27205;53.690;19.948;2023-02-21T15:00:24;99104.61;;;7.75;76.77
41467;BME280;27205;53.690;19.948;2023-02-21T15:05:39;99100.89;;;7.71;76.72
41467;BME280;27205;53.690;19.948;2023-02-21T15:10:46;99115.51;;;7.64;76.98
41467;BME280;27205;53.690;19.948;2023-02-21T15:16:12;99117.66;;;7.65;76.81
41467;BME280;27205;53.690;19.948;2023-02-21T15:21:17;99125.88;;;7.64;76.66
41467;BME280;27205;53.690;19.948;2023-02-21T15:26:25;99128.39;;;7.61;76.85
41467;BME280;27205;53.690;19.948;2023-02-21T15:31:51;99132.48;;;7.59;76.91
41467;BME280;27205;53.690;19.948;2023-02-21T15:37:22;99130.02;;;7.58;76.82
41467;BME280;27205;53.690;19.948;2023-02-21T15:42:28;99135.98;;;7.56;76.85
41467;BME280;27205;53.690;19.948;2023-02-21T15:47:32;99146.20;;;7.57;76.93
41467;BME280;27205;53.690;19.948;2023-02-21T15:52:43;99150.55;;;7.58;77.08
41467;BME280;27205;53.690;19.948;2023-02-21T15:58:24;99159.73;;;7.56;77.13
41467;BME280;27205;53.690;19.948;2023-02-21T16:03:40;99164.81;;;7.51;77.12
41467;BME280;27205;53.690;19.948;2023-02-21T16:14:04;99206.09;;;7.20;78.38
41467;BME280;27205;53.690;19.948;2023-02-21T16:19:08;99216.85;;;6.70;79.87
41467;BME280;27205;53.690;19.948;2023-02-21T16:24:30;99225.73;;;6.34;80.94
41467;BME280;27205;53.690;19.948;2023-02-21T16:29:34;99236.80;;;6.13;81.60
41467;BME280;27205;53.690;19.948;2023-02-21T16:34:37;99256.30;;;6.03;82.76
41467;BME280;27205;53.690;19.948;2023-02-21T16:39:41;99250.63;;;5.86;83.47
41467;BME280;27205;53.690;19.948;2023-02-21T16:44:45;99269.45;;;5.78;84.20
41467;BME280;27205;53.690;19.948;2023-02-21T16:49:50;99279.97;;;5.67;84.81
41467;BME280;27205;53.690;19.948;2023-02-21T16:54:54;99284.16;;;5.62;85.40
41467;BME280;27205;53.690;19.948;2023-02-21T16:59:57;99289.60;;;5.55;86.28
41467;BME280;27205;53.690;19.948;2023-02-21T17:05:01;99290.55;;;5.49;86.15
41467;BME280;27205;53.690;19.948;2023-02-21T17:10:05;99300.51;;;5.38;86.30
41467;BME280;27205;53.690;19.948;2023-02-21T17:15:09;99312.71;;;5.33;86.90
41467;BME280;27205;53.690;19.948;2023-02-21T17:20:17;99307.81;;;5.33;86.69
41467;BME280;27205;53.690;19.948;2023-02-21T17:25:21;99321.33;;;5.27;87.00
41467;BME280;27205;53.690;19.948;2023-02-21T17:30:25;99331.09;;;5.20;86.96
41467;BME280;27205;53.690;19.948;2023-02-21T17:35:29;99342.55;;;5.16;86.98
41467;BME280;27205;53.690;19.948;2023-02-21T17:40:32;99356.88;;;5.14;87.62
41467;BME280;27205;53.690;19.948;2023-02-21T17:45:36;99356.08;;;5.13;87.72
41467;BME280;27205;53.690;19.948;2023-02-21T17:50:39;99361.31;;;5.15;87.74
41467;BME280;27205;53.690;19.948;2023-02-21T17:55:43;99370.45;;;5.19;88.10
41467;BME280;27205;53.690;19.948;2023-02-21T18:00:46;99374.16;;;5.19;88.67
41467;BME280;27205;53.690;19.948;2023-02-21T18:05:50;99376.27;;;5.17;88.31
41467;BME280;27205;53.690;19.948;2023-02-21T18:10:53;99393.38;;;5.11;88.70
41467;BME280;27205;53.690;19.948;2023-02-21T18:15:57;99397.83;;;5.06;88.90
41467;BME280;27205;53.690;19.948;2023-02-21T18:21:04;99406.09;;;5.08;88.87
41467;BME280;27205;53.690;19.948;2023-02-21T18:26:08;99410.36;;;5.07;89.10
41467;BME280;27205;53.690;19.948;2023-02-21T18:31:16;99416.00;;;5.06;89.28
41467;BME280;27205;53.690;19.948;2023-02-21T18:36:21;99422.59;;;5.05;89.33
41467;BME280;27205;53.690;19.948;2023-02-21T18:41:25;99433.31;;;5.04;89.47
41467;BME280;27205;53.690;19.948;2023-02-21T18:46:28;99441.64;;;5.02;89.67
41467;BME280;27205;53.690;19.948;2023-02-21T18:51:34;99449.27;;;4.98;89.78
41467;BME280;27205;53.690;19.948;2023-02-21T18:56:44;99451.78;;;4.95;89.86
41467;BME280;27205;53.690;19.948;2023-02-21T19:01:50;99451.05;;;4.90;89.97
41467;BME280;27205;53.690;19.948;2023-02-21T19:06:53;99459.80;;;4.85;89.95
41467;BME280;27205;53.690;19.948;2023-02-21T19:11:57;99472.38;;;4.79;89.83
41467;BME280;27205;53.690;19.948;2023-02-21T19:17:00;99475.80;;;4.77;89.94
41467;BME280;27205;53.690;19.948;2023-02-21T19:22:04;99482.41;;;4.74;90.33
41467;BME280;27205;53.690;19.948;2023-02-21T19:27:07;99487.73;;;4.76;90.22
41467;BME280;27205;53.690;19.948;2023-02-21T19:32:12;99493.77;;;4.76;90.17
41467;BME280;27205;53.690;19.948;2023-02-21T19:37:17;99495.23;;;4.79;90.10
41467;BME280;27205;53.690;19.948;2023-02-21T19:42:20;99513.85;;;4.78;89.99
41467;BME280;27205;53.690;19.948;2023-02-21T19:47:24;99514.88;;;4.72;89.91
41467;BME280;27205;53.690;19.948;2023-02-21T19:52:31;99526.16;;;4.64;89.98
41467;BME280;27205;53.690;19.948;2023-02-21T19:57:35;99536.99;;;4.59;90.05
41467;BME280;27205;53.690;19.948;2023-02-21T20:02:39;99548.85;;;4.59;90.30
41467;BME280;27205;53.690;19.948;2023-02-21T20:07:42;99560.39;;;4.58;90.58
41467;BME280;27205;53.690;19.948;2023-02-21T20:12:46;99556.72;;;4.58;90.75
41467;BME280;27205;53.690;19.948;2023-02-21T20:17:49;99560.70;;;4.56;90.60
41467;BME280;27205;53.690;19.948;2023-02-21T20:22:55;99564.30;;;4.43;90.37
41467;BME280;27205;53.690;19.948;2023-02-21T20:28:00;99569.55;;;4.28;90.43
41467;BME280;27205;53.690;19.948;2023-02-21T20:33:06;99577.84;;;4.14;90.47
41467;BME280;27205;53.690;19.948;2023-02-21T20:38:21;99582.70;;;4.02;90.55
41467;BME280;27205;53.690;19.948;2023-02-21T20:43:25;99586.40;;;3.98;90.98
41467;BME280;27205;53.690;19.948;2023-02-21T20:48:29;99593.67;;;4.05;91.04
41467;BME280;27205;53.690;19.948;2023-02-21T20:53:34;99603.74;;;4.07;91.19
41467;BME280;27205;53.690;19.948;2023-02-21T20:58:39;99601.37;;;4.05;91.28
41467;BME280;27205;53.690;19.948;2023-02-21T21:03:42;99605.52;;;3.99;90.96
41467;BME280;27205;53.690;19.948;2023-02-21T21:08:46;99619.62;;;3.91;91.03
41467;BME280;27205;53.690;19.948;2023-02-21T21:13:50;99630.29;;;3.91;91.12
41467;BME280;27205;53.690;19.948;2023-02-21T21:18:54;99631.54;;;3.99;91.12
41467;BME280;27205;53.690;19.948;2023-02-21T21:23:59;99638.02;;;4.00;91.50
41467;BME280;27205;53.690;19.948;2023-02-21T21:29:05;99644.33;;;3.98;91.78
41467;BME280;27205;53.690;19.948;2023-02-21T21:34:11;99652.58;;;3.95;92.13
41467;BME280;27205;53.690;19.948;2023-02-21T21:39:15;99655.59;;;3.90;92.10
41467;BME280;27205;53.690;19.948;2023-02-21T21:44:20;99664.00;;;3.76;92.01
41467;BME280;27205;53.690;19.948;2023-02-21T21:49:26;99664.40;;;3.62;92.12
41467;BME280;27205;53.690;19.948;2023-02-21T21:54:30;99671.95;;;3.53;91.99
41467;BME280;27205;53.690;19.948;2023-02-21T21:59:38;99675.18;;;3.49;91.65
41467;BME280;27205;53.690;19.948;2023-02-21T22:04:45;99690.52;;;3.42;91.93
41467;BME280;27205;53.690;19.948;2023-02-21T22:09:50;99704.69;;;3.42;91.81
41467;BME280;27205;53.690;19.948;2023-02-21T22:14:53;99707.60;;;3.40;91.77
41467;BME280;27205;53.690;19.948;2023-02-21T22:19:59;99715.17;;;3.46;91.78
41467;BME280;27205;53.690;19.948;2023-02-21T22:25:03;99722.27;;;3.45;91.74
41467;BME280;27205;53.690;19.948;2023-02-21T22:30:07;99726.89;;;3.52;91.58
41467;BME280;27205;53.690;19.948;2023-02-21T22:35:13;99736.05;;;3.51;91.67
41467;BME280;27205;53.690;19.948;2023-02-21T22:40:23;99741.05;;;3.40;91.91
41467;BME280;27205;53.690;19.948;2023-02-21T22:45:28;99747.80;;;3.31;91.67
41467;BME280;27205;53.690;19.948;2023-02-21T22:50:35;99750.68;;;3.25;91.66
41467;BME280;27205;53.690;19.948;2023-02-21T22:55:39;99747.19;;;3.18;91.74
41467;BME280;27205;53.690;19.948;2023-02-21T23:00:43;99757.48;;;3.14;91.78
41467;BME280;27205;53.690;19.948;2023-02-21T23:05:48;99757.61;;;3.10;91.74
41467;BME280;27205;53.690;19.948;2023-02-21T23:10:52;99764.10;;;3.06;91.69
41467;BME280;27205;53.690;19.948;2023-02-21T23:15:56;99771.40;;;2.99;91.81
41467;BME280;27205;53.690;19.948;2023-02-21T23:21:02;99778.06;;;3.01;91.80
41467;BME280;27205;53.690;19.948;2023-02-21T23:26:06;99782.02;;;2.97;91.85
41467;BME280;27205;53.690;19.948;2023-02-21T23:31:11;99797.91;;;2.95;91.72
41467;BME280;27205;53.690;19.948;2023-02-21T23:36:16;99806.77;;;2.92;91.65
41467;BME280;27205;53.690;19.948;2023-02-21T23:41:25;99807.09;;;2.89;91.22
41467;BME280;27205;53.690;19.948;2023-02-21T23:46:31;99819.17;;;2.83;91.61
41467;BME280;27205;53.690;19.948;2023-02-21T23:51:38;99824.55;;;2.97;91.30
41467;BME280;27205;53.690;19.948;2023-02-21T23:56:46;99835.02;;;3.01;91.08
